createdAt,value
2022-08-02T00:00:36.228Z,18.10
2022-08-02T00:03:03.062Z,18.10
2022-08-02T00:05:29.775Z,18.00
2022-08-02T00:07:56.569Z,18.00
2022-08-02T00:10:23.397Z,18.00
2022-08-02T00:12:50.391Z,17.90
2022-08-02T00:15:17.145Z,17.90
2022-08-02T00:17:46.379Z,17.90
2022-08-02T00:20:15.391Z,17.90
2022-08-02T00:22:42.172Z,17.80
2022-08-02T00:25:09.234Z,17.80
2022-08-02T00:27:36.017Z,17.80
2022-08-02T00:30:03.066Z,17.80
2022-08-02T00:32:29.854Z,17.70
2022-08-02T00:34:56.605Z,17.60
2022-08-02T00:37:23.363Z,17.60
2022-08-02T00:39:50.072Z,17.60
2022-08-02T00:42:16.826Z,17.60
2022-08-02T00:44:43.879Z,17.70
2022-08-02T00:47:11.043Z,17.80
2022-08-02T00:49:41.797Z,17.80
2022-08-02T00:52:09.115Z,17.70
2022-08-02T00:54:36.084Z,17.70
2022-08-02T00:57:02.901Z,17.70
2022-08-02T00:59:29.624Z,17.70
2022-08-02T01:01:58.302Z,17.60
2022-08-02T01:04:35.232Z,17.60
2022-08-02T01:07:13.500Z,17.60
2022-08-02T01:09:44.830Z,17.60
2022-08-02T01:12:12.224Z,17.60
2022-08-02T01:14:41.856Z,17.60
2022-08-02T01:17:30.807Z,17.60
2022-08-02T01:20:02.989Z,17.40
2022-08-02T01:23:02.754Z,17.40
2022-08-02T01:26:09.469Z,17.50
2022-08-02T01:28:41.496Z,17.50
2022-08-02T01:31:14.755Z,17.50
2022-08-02T01:33:48.419Z,17.50
2022-08-02T01:36:18.723Z,17.40
2022-08-02T01:38:50.011Z,17.40
2022-08-02T01:41:23.625Z,17.40
2022-08-02T01:43:55.571Z,17.30
2022-08-02T01:46:23.018Z,17.30
2022-08-02T01:48:53.187Z,17.30
2022-08-02T01:52:25.136Z,17.30
2022-08-02T01:55:03.143Z,17.20
2022-08-02T01:57:41.921Z,17.10
2022-08-02T02:00:11.109Z,17.10
2022-08-02T02:02:42.690Z,17.00
2022-08-02T02:05:14.627Z,17.00
2022-08-02T02:07:43.823Z,16.90
2022-08-02T02:10:14.879Z,17.00
2022-08-02T02:12:47.370Z,17.00
2022-08-02T02:15:15.217Z,17.00
2022-08-02T02:17:53.054Z,16.80
2022-08-02T02:20:33.064Z,16.80
2022-08-02T02:22:59.983Z,16.80
2022-08-02T02:25:36.515Z,16.70
2022-08-02T02:28:12.985Z,16.80
2022-08-02T02:30:45.612Z,16.70
2022-08-02T02:33:16.445Z,16.50
2022-08-02T02:35:44.960Z,16.50
2022-08-02T02:38:14.389Z,16.40
2022-08-02T02:40:41.948Z,16.20
2022-08-02T02:43:11.134Z,16.10
2022-08-02T02:45:40.417Z,16.10
2022-08-02T02:48:09.154Z,16.20
2022-08-02T02:50:37.279Z,16.20
2022-08-02T02:53:05.326Z,16.20
2022-08-02T02:55:32.338Z,16.20
2022-08-02T02:57:59.630Z,16.30
2022-08-02T03:00:45.286Z,16.20
2022-08-02T03:03:13.571Z,16.30
2022-08-02T03:05:40.293Z,16.30
2022-08-02T03:08:07.431Z,16.30
2022-08-02T03:10:34.864Z,16.20
2022-08-02T03:13:01.721Z,16.20
2022-08-02T03:15:29.095Z,16.30
2022-08-02T03:17:55.787Z,16.30
2022-08-02T03:20:22.869Z,16.30
2022-08-02T03:22:50.137Z,16.20
2022-08-02T03:25:18.275Z,16.30
2022-08-02T03:27:45.576Z,16.30
2022-08-02T03:30:13.993Z,16.30
2022-08-02T03:32:44.009Z,16.30
2022-08-02T03:35:13.391Z,16.20
2022-08-02T03:37:41.037Z,16.30
2022-08-02T03:40:10.779Z,16.30
2022-08-02T03:42:40.123Z,16.30
2022-08-02T03:45:10.228Z,16.20
2022-08-02T03:47:39.221Z,16.20
2022-08-02T03:50:10.475Z,16.20
2022-08-02T03:52:37.395Z,16.10
2022-08-02T03:55:05.136Z,16.00
2022-08-02T03:57:32.177Z,16.00
2022-08-02T03:59:58.906Z,15.90
2022-08-02T04:02:25.668Z,15.90
2022-08-02T04:04:52.420Z,15.90
2022-08-02T04:08:02.474Z,16.00
2022-08-02T04:10:06.599Z,15.90
2022-08-02T04:12:33.353Z,15.90
2022-08-02T04:15:01.040Z,15.90
2022-08-02T04:17:30.297Z,15.90
2022-08-02T04:20:03.584Z,15.90
2022-08-02T04:22:35.475Z,15.90
2022-08-02T04:25:06.169Z,15.90
2022-08-02T04:28:15.095Z,15.90
2022-08-02T04:30:25.297Z,15.90
2022-08-02T04:32:52.895Z,15.90
2022-08-02T04:35:20.715Z,16.00
2022-08-02T04:38:09.345Z,16.00
2022-08-02T04:40:35.456Z,16.00
2022-08-02T04:43:02.172Z,16.10
2022-08-02T04:45:29.474Z,16.10
2022-08-02T04:48:04.460Z,16.20
2022-08-02T04:50:32.157Z,16.20
2022-08-02T04:52:58.858Z,16.30
2022-08-02T04:55:28.668Z,16.40
2022-08-02T04:57:57.273Z,16.30
2022-08-02T05:00:25.033Z,16.30
2022-08-02T05:02:52.589Z,16.40
2022-08-02T05:05:19.717Z,16.40
2022-08-02T05:07:46.804Z,16.40
2022-08-02T05:10:13.892Z,16.50
2022-08-02T05:12:41.268Z,16.50
2022-08-02T05:15:12.499Z,16.50
2022-08-02T05:17:47.699Z,16.60
2022-08-02T05:20:16.775Z,16.60
2022-08-02T05:22:44.008Z,16.70
2022-08-02T05:25:11.214Z,16.70
2022-08-02T05:27:37.997Z,16.80
2022-08-02T05:30:05.789Z,16.80
2022-08-02T05:32:32.578Z,16.80
2022-08-02T05:35:01.732Z,16.90
2022-08-02T05:37:31.817Z,17.00
2022-08-02T05:40:01.109Z,17.00
2022-08-02T05:42:31.402Z,17.00
2022-08-02T05:44:58.390Z,17.10
2022-08-02T05:47:25.813Z,17.20
2022-08-02T05:49:52.792Z,17.30
2022-08-02T05:52:21.097Z,17.50
2022-08-02T05:54:55.086Z,17.70
2022-08-02T05:57:45.702Z,17.80
2022-08-02T06:00:14.483Z,18.20
2022-08-02T06:03:04.232Z,18.50
2022-08-02T06:05:40.574Z,18.70
2022-08-02T06:08:10.154Z,19.00
2022-08-02T06:10:38.612Z,19.40
2022-08-02T06:13:14.396Z,19.60
2022-08-02T06:15:52.755Z,20.00
2022-08-02T06:18:28.533Z,20.30
2022-08-02T06:22:30.501Z,20.40
2022-08-02T06:23:57.731Z,20.50
2022-08-02T06:26:29.172Z,20.60
2022-08-02T06:28:58.280Z,20.80
2022-08-02T06:31:25.649Z,21.10
2022-08-02T06:33:53.142Z,21.20
2022-08-02T06:36:28.225Z,21.50
2022-08-02T06:39:01.556Z,21.60
2022-08-02T06:41:31.455Z,21.60
2022-08-02T06:44:26.126Z,21.90
2022-08-02T06:47:11.423Z,22.10
2022-08-02T06:49:52.065Z,22.10
2022-08-02T06:52:28.930Z,22.10
2022-08-02T06:55:00.750Z,22.30
2022-08-02T06:57:29.124Z,22.40
2022-08-02T06:59:56.108Z,22.60
2022-08-02T07:02:23.157Z,22.60
2022-08-02T07:04:50.018Z,22.70
2022-08-02T07:07:16.887Z,23.00
2022-08-02T07:10:00.594Z,23.20
2022-08-02T07:12:31.896Z,23.40
2022-08-02T07:15:00.596Z,23.20
2022-08-02T07:17:27.983Z,23.40
2022-08-02T07:19:54.995Z,23.60
2022-08-02T07:22:24.224Z,23.50
2022-08-02T07:24:51.795Z,23.70
2022-08-02T07:27:19.451Z,23.80
2022-08-02T07:29:47.485Z,24.00
2022-08-02T07:32:19.093Z,24.30
2022-08-02T07:34:51.138Z,24.40
2022-08-02T07:37:31.917Z,24.40
2022-08-02T07:40:14.616Z,24.40
2022-08-02T07:42:43.648Z,24.70
2022-08-02T07:45:12.475Z,24.70
2022-08-02T07:47:40.519Z,24.50
2022-08-02T07:50:08.785Z,24.90
2022-08-02T07:52:35.814Z,25.00
2022-08-02T07:55:02.654Z,25.10
2022-08-02T07:57:29.551Z,25.20
2022-08-02T07:59:56.434Z,25.40
2022-08-02T08:02:26.075Z,25.40
2022-08-02T08:04:53.462Z,25.70
2022-08-02T08:07:20.690Z,25.90
2022-08-02T08:09:50.724Z,25.80
2022-08-02T08:12:20.893Z,25.80
2022-08-02T08:14:47.813Z,25.80
2022-08-02T08:17:14.727Z,25.90
2022-08-02T08:19:51.552Z,26.20
2022-08-02T08:22:20.555Z,26.20
2022-08-02T08:24:48.407Z,26.30
2022-08-02T08:27:16.384Z,26.20
2022-08-02T08:29:43.909Z,26.40
2022-08-02T08:32:16.342Z,26.50
2022-08-02T08:34:48.476Z,26.70
2022-08-02T08:37:16.535Z,26.80
2022-08-02T08:39:58.073Z,27.00
2022-08-02T08:42:30.571Z,27.10
2022-08-02T08:44:58.627Z,27.20
2022-08-02T08:47:36.309Z,27.30
2022-08-02T08:50:14.382Z,27.30
2022-08-02T08:52:53.549Z,27.20
2022-08-02T08:55:24.986Z,27.30
2022-08-02T08:57:52.675Z,27.40
2022-08-02T09:00:19.573Z,27.40
2022-08-02T09:02:46.760Z,27.60
2022-08-02T09:05:16.622Z,27.80
2022-08-02T09:07:47.770Z,27.80
2022-08-02T09:10:36.861Z,27.80
2022-08-02T09:13:38.085Z,27.90
2022-08-02T09:15:57.711Z,27.70
2022-08-02T09:18:31.784Z,27.80
2022-08-02T09:21:08.955Z,27.90
2022-08-02T09:23:38.001Z,27.90
2022-08-02T09:26:11.217Z,27.70
2022-08-02T09:28:41.705Z,27.90
2022-08-02T09:31:15.441Z,27.80
2022-08-02T09:33:47.609Z,27.70
2022-08-02T09:36:16.465Z,28.00
2022-08-02T09:39:06.449Z,28.10
2022-08-02T09:41:35.521Z,28.10
2022-08-02T09:44:06.711Z,28.40
2022-08-02T09:46:44.178Z,28.50
2022-08-02T09:49:16.813Z,29.00
2022-08-02T09:51:47.097Z,28.90
2022-08-02T09:54:33.025Z,28.80
2022-08-02T09:57:01.585Z,29.00
2022-08-02T09:59:29.306Z,29.00
2022-08-02T10:02:01.686Z,28.70
2022-08-02T10:04:31.847Z,28.50
2022-08-02T10:07:04.340Z,28.40
2022-08-02T10:09:32.310Z,28.40
2022-08-02T10:12:01.065Z,28.60
2022-08-02T10:14:30.105Z,28.60
2022-08-02T10:16:58.596Z,28.30
2022-08-02T10:19:59.737Z,28.60
2022-08-02T10:22:17.018Z,28.40
2022-08-02T10:24:48.318Z,28.50
2022-08-02T10:27:20.359Z,28.60
2022-08-02T10:29:53.461Z,29.00
2022-08-02T10:32:25.451Z,29.00
2022-08-02T10:34:58.641Z,29.20
2022-08-02T10:37:47.871Z,29.20
2022-08-02T10:40:24.346Z,29.20
2022-08-02T10:42:53.428Z,29.10
2022-08-02T10:45:22.519Z,29.00
2022-08-02T10:48:09.906Z,28.90
2022-08-02T10:50:45.805Z,29.00
2022-08-02T10:53:29.458Z,28.90
2022-08-02T10:56:05.226Z,28.90
2022-08-02T10:58:34.077Z,29.20
2022-08-02T11:01:38.840Z,29.20
2022-08-02T11:04:10.547Z,29.30
2022-08-02T11:07:19.985Z,29.50
2022-08-02T11:09:50.554Z,29.40
2022-08-02T11:12:21.562Z,29.30
2022-08-02T11:15:07.786Z,29.50
2022-08-02T11:17:55.936Z,29.50
2022-08-02T11:20:24.369Z,29.50
2022-08-02T11:22:53.369Z,29.40
2022-08-02T11:25:23.396Z,29.50
2022-08-02T11:27:58.881Z,29.60
2022-08-02T11:30:27.248Z,29.70
2022-08-02T11:32:58.728Z,29.70
2022-08-02T11:35:40.043Z,29.70
2022-08-02T11:38:16.190Z,29.50
2022-08-02T11:40:43.578Z,29.40
2022-08-02T11:43:21.813Z,29.40
2022-08-02T11:45:50.943Z,29.30
2022-08-02T11:48:34.363Z,29.40
2022-08-02T11:51:05.206Z,29.30
2022-08-02T11:53:41.554Z,29.40
2022-08-02T11:56:08.791Z,29.60
2022-08-02T11:58:35.652Z,29.60
2022-08-02T12:01:03.202Z,29.80
2022-08-02T12:03:38.154Z,29.90
2022-08-02T12:06:16.241Z,29.90
2022-08-02T12:08:43.373Z,30.00
2022-08-02T12:11:21.818Z,30.10
2022-08-02T12:13:57.107Z,29.70
2022-08-02T12:16:44.365Z,29.60
2022-08-02T12:19:20.255Z,29.80
2022-08-02T12:21:47.433Z,29.90
2022-08-02T12:24:26.704Z,30.00
2022-08-02T12:26:53.684Z,29.90
2022-08-02T12:29:58.213Z,29.90
2022-08-02T12:32:24.985Z,30.00
2022-08-02T12:35:06.748Z,30.10
2022-08-02T12:37:34.720Z,29.80
2022-08-02T12:40:25.261Z,29.80
2022-08-02T12:42:56.437Z,29.90
2022-08-02T12:45:24.917Z,30.00
2022-08-02T12:47:54.938Z,30.10
2022-08-02T12:50:26.337Z,30.20
2022-08-02T12:53:11.574Z,30.10
2022-08-02T12:56:01.450Z,29.90
2022-08-02T12:58:31.593Z,29.80
2022-08-02T13:01:01.174Z,29.90
2022-08-02T13:04:10.374Z,29.90
2022-08-02T13:06:39.546Z,29.90
2022-08-02T13:09:12.028Z,30.00
2022-08-02T13:11:38.890Z,29.90
2022-08-02T13:14:10.899Z,30.00
2022-08-02T13:16:37.802Z,29.90
2022-08-02T13:19:04.673Z,29.80
2022-08-02T13:21:40.653Z,29.90
2022-08-02T13:24:20.835Z,29.80
2022-08-02T13:26:55.967Z,29.80
2022-08-02T13:29:23.019Z,29.90
2022-08-02T13:31:49.921Z,30.00
2022-08-02T13:34:16.873Z,30.00
2022-08-02T13:36:43.803Z,30.00
2022-08-02T13:39:11.972Z,29.80
2022-08-02T13:41:38.971Z,29.90
2022-08-02T13:44:10.386Z,30.00
2022-08-02T13:46:45.354Z,30.00
2022-08-02T13:49:19.286Z,30.20
2022-08-02T13:51:48.694Z,30.40
2022-08-02T13:54:16.829Z,30.50
2022-08-02T13:56:43.873Z,30.60
2022-08-02T13:59:26.451Z,30.40
2022-08-02T14:01:58.948Z,30.30
2022-08-02T14:04:26.610Z,30.20
2022-08-02T14:06:53.760Z,30.00
2022-08-02T14:09:20.992Z,30.10
2022-08-02T14:11:48.463Z,30.30
2022-08-02T14:14:17.240Z,30.50
2022-08-02T14:16:45.206Z,30.50
2022-08-02T14:19:16.396Z,30.30
2022-08-02T14:21:50.930Z,30.40
2022-08-02T14:24:19.051Z,30.20
2022-08-02T14:26:46.426Z,30.10
2022-08-02T14:29:13.899Z,30.10
2022-08-02T14:31:44.370Z,30.00
2022-08-02T14:34:15.195Z,30.00
2022-08-02T14:36:42.060Z,30.20
2022-08-02T14:39:09.590Z,30.40
2022-08-02T14:42:00.212Z,30.30
2022-08-02T14:44:24.408Z,30.20
2022-08-02T14:46:52.656Z,30.20
2022-08-02T14:49:24.372Z,30.30
2022-08-02T14:51:56.500Z,30.40
2022-08-02T14:54:26.823Z,30.40
2022-08-02T14:57:02.311Z,30.60
2022-08-02T14:59:30.219Z,30.70
2022-08-02T15:01:57.808Z,30.60
2022-08-02T15:04:24.809Z,30.50
2022-08-02T15:06:52.112Z,30.50
2022-08-02T15:09:19.186Z,30.40
2022-08-02T15:11:48.065Z,30.50
2022-08-02T15:14:25.675Z,30.50
2022-08-02T15:16:58.556Z,30.40
2022-08-02T15:19:58.942Z,30.40
2022-08-02T15:22:16.496Z,30.60
2022-08-02T15:24:45.761Z,30.40
2022-08-02T15:27:15.700Z,30.20
2022-08-02T15:29:46.580Z,30.20
2022-08-02T15:32:14.378Z,30.30
2022-08-02T15:34:41.656Z,30.50
2022-08-02T15:37:08.615Z,30.40
2022-08-02T15:39:35.498Z,30.50
2022-08-02T15:42:02.794Z,30.50
2022-08-02T15:44:29.671Z,30.50
2022-08-02T15:46:56.488Z,30.40
2022-08-02T15:49:24.847Z,30.30
2022-08-02T15:51:52.844Z,30.20
2022-08-02T15:54:19.724Z,30.30
2022-08-02T15:56:46.711Z,30.40
2022-08-02T15:59:13.502Z,30.40
2022-08-02T16:01:43.525Z,30.40
2022-08-02T16:04:13.373Z,30.40
2022-08-02T16:06:40.148Z,30.50
2022-08-02T16:09:06.860Z,30.50
2022-08-02T16:11:33.661Z,30.50
2022-08-02T16:14:00.415Z,30.40
2022-08-02T16:16:29.558Z,30.30
2022-08-02T16:18:56.854Z,30.40
2022-08-02T16:21:24.606Z,30.40
2022-08-02T16:24:02.047Z,30.40
2022-08-02T16:26:31.492Z,30.40
2022-08-02T16:28:59.307Z,30.50
2022-08-02T16:31:26.182Z,30.40
2022-08-02T16:33:56.251Z,30.40
2022-08-02T16:36:25.375Z,30.40
2022-08-02T16:38:53.929Z,30.40
2022-08-02T16:41:21.150Z,30.30
2022-08-02T16:43:47.910Z,30.40
2022-08-02T16:46:14.903Z,30.50
2022-08-02T16:48:42.269Z,30.40
2022-08-02T16:51:19.137Z,30.40
2022-08-02T16:54:00.160Z,30.30
2022-08-02T16:56:28.780Z,30.40
2022-08-02T16:58:59.781Z,30.40
2022-08-02T17:02:02.932Z,30.20
2022-08-02T17:04:15.621Z,30.10
2022-08-02T17:06:48.034Z,30.10
2022-08-02T17:10:04.072Z,30.00
2022-08-02T17:12:09.072Z,30.20
2022-08-02T17:14:41.868Z,30.20
2022-08-02T17:17:22.251Z,30.10
2022-08-02T17:20:00.702Z,30.10
2022-08-02T17:22:27.554Z,30.20
2022-08-02T17:24:54.474Z,30.20
2022-08-02T17:27:22.309Z,30.10
2022-08-02T17:29:49.137Z,30.10
2022-08-02T17:32:18.637Z,29.90
2022-08-02T17:34:56.562Z,30.00
2022-08-02T17:37:32.769Z,30.00
2022-08-02T17:40:01.966Z,30.10
2022-08-02T17:42:31.173Z,30.00
2022-08-02T17:45:07.064Z,29.90
2022-08-02T17:48:04.660Z,29.90
2022-08-02T17:50:30.637Z,29.90
2022-08-02T17:52:57.714Z,29.90
2022-08-02T17:55:24.543Z,29.80
2022-08-02T17:57:57.044Z,29.80
2022-08-02T18:00:33.594Z,29.60
2022-08-02T18:03:02.160Z,29.60
2022-08-02T18:05:39.258Z,29.60
2022-08-02T18:08:07.546Z,29.60
2022-08-02T18:10:34.434Z,29.60
2022-08-02T18:13:01.173Z,29.50
2022-08-02T18:15:32.377Z,29.50
2022-08-02T18:18:00.235Z,29.40
2022-08-02T18:20:26.930Z,29.40
2022-08-02T18:22:55.570Z,29.40
2022-08-02T18:25:37.817Z,29.50
2022-08-02T18:28:09.580Z,29.40
2022-08-02T18:30:36.529Z,29.40
2022-08-02T18:33:55.897Z,29.40
2022-08-02T18:35:49.990Z,29.40
2022-08-02T18:38:16.730Z,29.50
2022-08-02T18:40:44.135Z,29.50
2022-08-02T18:43:18.366Z,29.40
2022-08-02T18:46:05.403Z,29.40
2022-08-02T18:48:31.803Z,29.30
2022-08-02T18:50:58.626Z,29.20
2022-08-02T18:53:39.497Z,29.00
2022-08-02T18:56:10.308Z,28.90
2022-08-02T18:58:48.358Z,28.80
2022-08-02T19:01:22.016Z,28.70
2022-08-02T19:04:00.305Z,28.60
2022-08-02T19:06:28.882Z,28.50
2022-08-02T19:09:13.220Z,28.30
2022-08-02T19:11:47.979Z,28.20
2022-08-02T19:14:24.042Z,28.00
2022-08-02T19:16:56.734Z,27.90
2022-08-02T19:19:29.177Z,27.80
2022-08-02T19:22:17.646Z,27.80
2022-08-02T19:24:45.834Z,27.70
2022-08-02T19:27:33.122Z,27.50
2022-08-02T19:30:07.812Z,27.40
2022-08-02T19:32:40.321Z,27.30
2022-08-02T19:35:30.035Z,27.20
2022-08-02T19:38:07.315Z,27.10
2022-08-02T19:40:34.518Z,26.60
2022-08-02T19:44:23.524Z,26.60
2022-08-02T19:45:50.704Z,26.50
2022-08-02T19:48:23.963Z,26.50
2022-08-02T19:50:59.129Z,26.50
2022-08-02T19:53:47.936Z,26.40
2022-08-02T19:56:24.751Z,26.30
2022-08-02T19:58:54.176Z,26.20
2022-08-02T20:01:28.086Z,26.20
2022-08-02T20:04:05.181Z,26.20
2022-08-02T20:06:31.890Z,26.10
2022-08-02T20:09:01.048Z,26.00
2022-08-02T20:11:34.498Z,25.90
2022-08-02T20:14:05.769Z,25.90
2022-08-02T20:16:34.303Z,25.80
2022-08-02T20:19:02.736Z,25.70
2022-08-02T20:24:16.512Z,25.60
2022-08-02T20:26:47.905Z,25.60
2022-08-02T20:29:43.680Z,25.50
2022-08-02T20:32:04.619Z,25.40
2022-08-02T20:34:31.558Z,25.40
2022-08-02T20:37:00.455Z,25.40
2022-08-02T20:39:47.944Z,25.30
2022-08-02T20:42:23.098Z,25.20
2022-08-02T20:44:54.904Z,25.20
2022-08-02T20:47:38.904Z,25.10
2022-08-02T20:50:30.423Z,25.00
2022-08-02T20:53:02.604Z,25.00
2022-08-02T20:55:31.828Z,24.90
2022-08-02T20:58:02.995Z,24.90
2022-08-02T21:00:31.398Z,24.80
2022-08-02T21:02:59.803Z,24.80
2022-08-02T21:05:54.038Z,24.70
2022-08-02T21:08:14.736Z,24.60
2022-08-02T21:10:50.297Z,24.50
2022-08-02T21:13:23.043Z,24.50
2022-08-02T21:15:51.394Z,24.40
2022-08-02T21:18:24.306Z,24.30
2022-08-02T21:21:05.446Z,24.30
2022-08-02T21:23:36.649Z,24.20
2022-08-02T21:26:04.686Z,24.10
2022-08-02T21:28:43.282Z,24.10
2022-08-02T21:31:12.370Z,24.00
2022-08-02T21:36:33.165Z,23.90
2022-08-02T21:39:05.167Z,23.90
2022-08-02T21:41:38.878Z,23.80
2022-08-02T21:44:08.850Z,23.80
2022-08-02T21:46:35.655Z,23.70
2022-08-02T21:49:02.651Z,23.60
2022-08-02T21:51:29.473Z,23.60
2022-08-02T21:54:17.541Z,23.50
2022-08-02T21:56:53.381Z,23.50
2022-08-02T22:02:09.234Z,23.40
2022-08-02T22:04:36.272Z,23.40
2022-08-02T22:07:03.261Z,23.30
2022-08-02T22:09:44.244Z,23.30
2022-08-02T22:12:18.095Z,23.30
2022-08-02T22:14:49.385Z,23.20
2022-08-02T22:17:50.508Z,23.10
2022-08-02T22:20:12.523Z,23.00
2022-08-02T22:22:39.700Z,23.00
2022-08-02T22:25:10.057Z,22.90
2022-08-02T22:28:35.360Z,22.90
2022-08-02T22:30:23.887Z,22.80
2022-08-02T22:33:15.429Z,22.80
2022-08-02T22:35:42.383Z,22.80
2022-08-02T22:38:14.872Z,22.80
2022-08-02T22:40:48.740Z,22.80
2022-08-02T22:43:22.629Z,22.70
2022-08-02T22:45:50.704Z,22.60
2022-08-02T22:48:17.877Z,22.50
2022-08-02T22:50:44.666Z,22.50
2022-08-02T22:53:12.478Z,22.40
2022-08-02T22:55:41.304Z,22.40
2022-08-02T22:58:09.110Z,22.40
2022-08-02T22:59:03.015Z,24.00
2022-08-02T22:59:07.696Z,25.60
2022-08-02T23:00:35.853Z,22.40
2022-08-02T23:03:03.014Z,22.30
2022-08-02T23:05:33.886Z,22.30
2022-08-02T23:08:00.798Z,22.20
2022-08-02T23:10:27.893Z,22.20
2022-08-02T23:12:58.817Z,22.20
2022-08-02T23:15:26.750Z,22.20
2022-08-02T23:18:12.423Z,22.10
2022-08-02T23:20:39.144Z,21.90
2022-08-02T23:23:11.498Z,21.80
2022-08-02T23:25:38.475Z,21.80
2022-08-02T23:28:05.307Z,21.80
2022-08-02T23:30:32.035Z,21.80
2022-08-02T23:32:58.739Z,21.70
2022-08-02T23:35:25.466Z,21.70
2022-08-02T23:37:59.860Z,21.70
2022-08-02T23:40:31.693Z,21.60
2022-08-02T23:43:14.786Z,21.70
2022-08-02T23:45:45.870Z,21.70
2022-08-02T23:48:12.839Z,21.70
2022-08-02T23:50:39.694Z,21.70
2022-08-02T23:53:06.474Z,21.70
2022-08-02T23:55:33.247Z,21.60
2022-08-02T23:58:00.156Z,21.50
